Helliar — 2EPP5 — position and weather

sailwx.info

Track history (hours):
 
Tides and Currents Weather Stations Pressure Air Temp Water Temp Dewpoint Dewpoint Depression Visibility Wind Speed Wind Dir Waves Ship Positions

Helliar

Last reported at 2017-Mar-22 20:33 UTC. Time now 2017-Mar-27 08:43 UTC.
Position N 57°41' W 001°37'.

Length 122 m; draft 5.5 m.

Type: Cargo ship. MMSI: 235087119.

Date/timePositionNaut miles runAvg speedWind from/ knotsBaromVisibWave heightAir tempDewpointWater temp
2017-Mar-22 20:33N 57°41' W 001°37'1212.2
2017-Mar-22 19:33N 57°29' W 001°42'1212.2
2017-Mar-22 18:33N 57°18' W 001°51'1211.7
2017-Mar-22 17:33N 57°09' W 002°05'0 0.3
2017-Mar-22 16:32N 57°09' W 002°05'0 0.0
2017-Mar-22 15:32N 57°09' W 002°05'0 0.0
2017-Mar-22 14:32N 57°09' W 002°05'0 0.0
2017-Mar-22 13:32N 57°09' W 002°05'0 0.0
2017-Mar-22 12:32N 57°09' W 002°05'0 0.0
2017-Mar-22 11:32N 57°09' W 002°05'0 0.0
2017-Mar-22 10:32N 57°09' W 002°05'0 0.0
2017-Mar-22 09:32N 57°09' W 002°05'0 0.0
2017-Mar-22 08:32N 57°09' W 002°05'0 0.4
2017-Mar-22 07:33N 57°09' W 002°05'1211.7
2017-Mar-22 06:33N 57°18' W 001°51'1413.7
2017-Mar-22 05:34N 57°30' W 001°39'1313.2
2017-Mar-22 04:33N 57°43' W 001°36'10 0.3
2017-Mar-20 20:33N 57°47' W 001°53'1413.5
2017-Mar-20 19:33N 57°35' W 001°43'1312.7
2017-Mar-20 18:33N 57°22' W 001°47'1313.5
2017-Mar-20 17:33N 57°10' W 002°00'3 3.3
2017-Mar-20 16:31N 57°09' W 002°05'0 0.0
2017-Mar-20 15:31N 57°09' W 002°05'0 0.0
2017-Mar-20 14:31N 57°09' W 002°05'0 0.0
2017-Mar-20 13:31N 57°09' W 002°05'0 0.0
2017-Mar-20 12:31N 57°09' W 002°05'0 0.0
2017-Mar-20 11:31N 57°09' W 002°05'0 0.0
2017-Mar-20 10:31N 57°09' W 002°05'0 0.0
2017-Mar-20 09:31N 57°09' W 002°05'0 0.0
2017-Mar-20 08:31N 57°09' W 002°05'1 1.0
2017-Mar-20 07:33N 57°09' W 002°04'1110.9
2017-Mar-20 06:33N 57°17' W 001°51'1812.9
2017-Mar-20 05:11N 57°34' W 001°39'913.8
2017-Mar-20 04:33N 57°42' W 001°37'1413.7
2017-Mar-20 03:33N 57°56' W 001°36'13 0.4
2017-Mar-18 19:33N 57°43' W 001°37'1313.3
2017-Mar-18 18:33N 57°30' W 001°40'1313.0
2017-Mar-18 17:32N 57°18' W 001°52'1212.0
2017-Mar-18 16:33N 57°09' W 002°05'0 0.4
2017-Mar-18 15:32N 57°09' W 002°05'0 0.0
2017-Mar-18 14:32N 57°09' W 002°05'0 0.0
2017-Mar-18 13:32N 57°09' W 002°05'0 0.0
2017-Mar-18 12:32N 57°09' W 002°05'0 0.0
2017-Mar-18 11:32N 57°09' W 002°05'0 0.0
2017-Mar-18 10:32N 57°09' W 002°05'0 0.0
2017-Mar-18 09:32N 57°09' W 002°05'0 0.0
2017-Mar-18 08:32N 57°09' W 002°05'0 0.4
2017-Mar-18 07:34N 57°09' W 002°05'1111.2
2017-Mar-18 06:33N 57°17' W 001°51'1512.4
2017-Mar-18 05:22N 57°30' W 001°37'1114.1
2017-Mar-18 04:33N 57°41' W 001°36'  
2017-Mar-15 20:33N 57°53' W 001°46'1616.0
2017-Mar-15 19:34N 57°37' W 001°42'1615.6
2017-Mar-15 18:34N 57°22' W 001°47'1515.0
2017-Mar-15 17:33N 57°09' W 002°03'2 1.5
2017-Mar-15 16:32N 57°09' W 002°05'0 0.0
2017-Mar-15 15:32N 57°09' W 002°05'0 0.0
2017-Mar-15 14:34N 57°09' W 002°05'6 5.8
2017-Mar-15 13:33N 57°13' W 001°58'1515.5
2017-Mar-15 12:33N 57°26' W 001°43'1515.5
2017-Mar-15 11:33N 57°41' W 001°47'7614.1
2017-Mar-15 06:10N 58°53' W 002°35'812.7
2017-Mar-15 05:33N 58°59' W 002°43'8 7.7
2017-Mar-15 04:31N 58°60' W 002°58'0 0.0
2017-Mar-15 03:31N 58°60' W 002°58'3 2.8
2017-Mar-15 02:33N 59°01' W 002°53'1211.8
2017-Mar-15 01:33N 58°54' W 002°35'1412.4
2017-Mar-15 00:27N 58°41' W 002°27'6212.6
2017-Mar-14 19:34N 57°43' W 001°48'1615.8
2017-Mar-14 18:33N 57°27' W 001°43'1615.5
2017-Mar-14 17:33N 57°14' W 001°57'7 6.6
2017-Mar-14 16:32N 57°09' W 002°05'0 0.0
2017-Mar-14 15:32N 57°09' W 002°05'0 0.0
2017-Mar-14 14:32N 57°09' W 002°05'0 0.0
2017-Mar-14 13:32N 57°09' W 002°05'0 0.0
2017-Mar-14 12:32N 57°09' W 002°05'0 0.0
2017-Mar-14 11:32N 57°09' W 002°05'0 0.0
2017-Mar-14 10:32N 57°09' W 002°05'0 0.0
2017-Mar-14 09:32N 57°09' W 002°05'0 0.0
2017-Mar-14 08:32N 57°09' W 002°05'0 0.0
2017-Mar-14 07:32N 57°09' W 002°05'0 0.0
2017-Mar-14 06:32N 57°09' W 002°05'2 1.7
2017-Mar-14 05:33N 57°09' W 002°02'1211.9
2017-Mar-14 04:33N 57°19' W 001°49'1212.1
2017-Mar-14 03:33N 57°29' W 001°39'1212.1
2017-Mar-14 02:33N 57°41' W 001°45'1312.7
2017-Mar-14 01:30N 57°54' W 001°54'6713.6
2017-Mar-13 20:33N 58°57' W 002°38'1110.2
2017-Mar-13 19:29N 58°60' W 002°58'0 0.0
2017-Mar-13 18:32N 58°60' W 002°58'0 0.0
2017-Mar-13 17:32N 58°60' W 002°58'0 0.0
2017-Mar-13 16:32N 58°60' W 002°58'0 0.0
2017-Mar-13 15:32N 58°60' W 002°58'0 0.0
2017-Mar-13 14:32N 58°60' W 002°58'0 0.0
2017-Mar-13 13:32N 58°60' W 002°58'0 0.0
2017-Mar-13 12:32N 58°60' W 002°58'0 0.0
2017-Mar-13 11:32N 58°60' W 002°58'0 0.0
2017-Mar-13 10:32N 58°60' W 002°58'0 0.0
2017-Mar-13 09:32N 58°60' W 002°58'0 0.0
2017-Mar-13 08:32N 58°60' W 002°58'0 0.0
2017-Mar-13 07:32N 58°60' W 002°58'0 0.0
2017-Mar-13 06:32N 58°60' W 002°58'0 0.0
2017-Mar-13 05:32N 58°60' W 002°58'0 0.0
2017-Mar-13 04:32N 58°60' W 002°58'0 0.0
2017-Mar-13 03:32N 58°60' W 002°58'0 0.0
2017-Mar-13 02:32N 58°60' W 002°58'0 0.0
2017-Mar-13 01:32N 58°60' W 002°58'0 0.0
2017-Mar-13 00:32N 58°60' W 002°58'2 2.1
2017-Mar-12 23:33N 59°01' W 002°56'1110.6
2017-Mar-12 22:29N 58°56' W 002°37'  
Track history (hours):
 
Tides and Currents Weather Stations Pressure Air Temp Water Temp Dewpoint Dewpoint Depression Visibility Wind Speed Wind Dir Waves Ship Positions

Helliar

Last reported at 2017-Mar-22 20:33 UTC. Time now 2017-Mar-27 08:43 UTC.
Position N 57°41' W 001°37'.

Length 122 m; draft 5.5 m.

Type: Cargo ship. MMSI: 235087119.

Date/timePositionNaut miles runAvg speedWind from/ knotsBaromVisibWave heightAir tempDewpointWater temp
2017-Mar-22 20:33N 57°41' W 001°37'1212.2
2017-Mar-22 19:33N 57°29' W 001°42'1212.2
2017-Mar-22 18:33N 57°18' W 001°51'1211.7
2017-Mar-22 17:33N 57°09' W 002°05'0 0.3
2017-Mar-22 16:32N 57°09' W 002°05'0 0.0
2017-Mar-22 15:32N 57°09' W 002°05'0 0.0
2017-Mar-22 14:32N 57°09' W 002°05'0 0.0
2017-Mar-22 13:32N 57°09' W 002°05'0 0.0
2017-Mar-22 12:32N 57°09' W 002°05'0 0.0
2017-Mar-22 11:32N 57°09' W 002°05'0 0.0
2017-Mar-22 10:32N 57°09' W 002°05'0 0.0
2017-Mar-22 09:32N 57°09' W 002°05'0 0.0
2017-Mar-22 08:32N 57°09' W 002°05'0 0.4
2017-Mar-22 07:33N 57°09' W 002°05'1211.7
2017-Mar-22 06:33N 57°18' W 001°51'1413.7
2017-Mar-22 05:34N 57°30' W 001°39'1313.2
2017-Mar-22 04:33N 57°43' W 001°36'10 0.3
2017-Mar-20 20:33N 57°47' W 001°53'1413.5
2017-Mar-20 19:33N 57°35' W 001°43'1312.7
2017-Mar-20 18:33N 57°22' W 001°47'1313.5
2017-Mar-20 17:33N 57°10' W 002°00'3 3.3
2017-Mar-20 16:31N 57°09' W 002°05'0 0.0
2017-Mar-20 15:31N 57°09' W 002°05'0 0.0
2017-Mar-20 14:31N 57°09' W 002°05'0 0.0
2017-Mar-20 13:31N 57°09' W 002°05'0 0.0
2017-Mar-20 12:31N 57°09' W 002°05'0 0.0
2017-Mar-20 11:31N 57°09' W 002°05'0 0.0
2017-Mar-20 10:31N 57°09' W 002°05'0 0.0
2017-Mar-20 09:31N 57°09' W 002°05'0 0.0
2017-Mar-20 08:31N 57°09' W 002°05'1 1.0
2017-Mar-20 07:33N 57°09' W 002°04'1110.9
2017-Mar-20 06:33N 57°17' W 001°51'1812.9
2017-Mar-20 05:11N 57°34' W 001°39'913.8
2017-Mar-20 04:33N 57°42' W 001°37'1413.7
2017-Mar-20 03:33N 57°56' W 001°36'13 0.4
2017-Mar-18 19:33N 57°43' W 001°37'1313.3
2017-Mar-18 18:33N 57°30' W 001°40'1313.0
2017-Mar-18 17:32N 57°18' W 001°52'1212.0
2017-Mar-18 16:33N 57°09' W 002°05'0 0.4
2017-Mar-18 15:32N 57°09' W 002°05'0 0.0
2017-Mar-18 14:32N 57°09' W 002°05'0 0.0
2017-Mar-18 13:32N 57°09' W 002°05'0 0.0
2017-Mar-18 12:32N 57°09' W 002°05'0 0.0
2017-Mar-18 11:32N 57°09' W 002°05'0 0.0
2017-Mar-18 10:32N 57°09' W 002°05'0 0.0
2017-Mar-18 09:32N 57°09' W 002°05'0 0.0
2017-Mar-18 08:32N 57°09' W 002°05'0 0.4
2017-Mar-18 07:34N 57°09' W 002°05'1111.2
2017-Mar-18 06:33N 57°17' W 001°51'1512.4
2017-Mar-18 05:22N 57°30' W 001°37'1114.1
2017-Mar-18 04:33N 57°41' W 001°36'  
2017-Mar-15 20:33N 57°53' W 001°46'1616.0
2017-Mar-15 19:34N 57°37' W 001°42'1615.6
2017-Mar-15 18:34N 57°22' W 001°47'1515.0
2017-Mar-15 17:33N 57°09' W 002°03'2 1.5
2017-Mar-15 16:32N 57°09' W 002°05'0 0.0
2017-Mar-15 15:32N 57°09' W 002°05'0 0.0
2017-Mar-15 14:34N 57°09' W 002°05'6 5.8
2017-Mar-15 13:33N 57°13' W 001°58'1515.5
2017-Mar-15 12:33N 57°26' W 001°43'1515.5
2017-Mar-15 11:33N 57°41' W 001°47'7614.1
2017-Mar-15 06:10N 58°53' W 002°35'812.7
2017-Mar-15 05:33N 58°59' W 002°43'8 7.7
2017-Mar-15 04:31N 58°60' W 002°58'0 0.0
2017-Mar-15 03:31N 58°60' W 002°58'3 2.8
2017-Mar-15 02:33N 59°01' W 002°53'1211.8
2017-Mar-15 01:33N 58°54' W 002°35'1412.4
2017-Mar-15 00:27N 58°41' W 002°27'6212.6
2017-Mar-14 19:34N 57°43' W 001°48'1615.8
2017-Mar-14 18:33N 57°27' W 001°43'1615.5
2017-Mar-14 17:33N 57°14' W 001°57'7 6.6
2017-Mar-14 16:32N 57°09' W 002°05'0 0.0
2017-Mar-14 15:32N 57°09' W 002°05'0 0.0
2017-Mar-14 14:32N 57°09' W 002°05'0 0.0
2017-Mar-14 13:32N 57°09' W 002°05'0 0.0
2017-Mar-14 12:32N 57°09' W 002°05'0 0.0
2017-Mar-14 11:32N 57°09' W 002°05'0 0.0
2017-Mar-14 10:32N 57°09' W 002°05'0 0.0
2017-Mar-14 09:32N 57°09' W 002°05'0 0.0
2017-Mar-14 08:32N 57°09' W 002°05'0 0.0
2017-Mar-14 07:32N 57°09' W 002°05'0 0.0
2017-Mar-14 06:32N 57°09' W 002°05'2 1.7
2017-Mar-14 05:33N 57°09' W 002°02'1211.9
2017-Mar-14 04:33N 57°19' W 001°49'1212.1
2017-Mar-14 03:33N 57°29' W 001°39'1212.1
2017-Mar-14 02:33N 57°41' W 001°45'1312.7
2017-Mar-14 01:30N 57°54' W 001°54'6713.6
2017-Mar-13 20:33N 58°57' W 002°38'1110.2
2017-Mar-13 19:29N 58°60' W 002°58'0 0.0
2017-Mar-13 18:32N 58°60' W 002°58'0 0.0
2017-Mar-13 17:32N 58°60' W 002°58'0 0.0
2017-Mar-13 16:32N 58°60' W 002°58'0 0.0
2017-Mar-13 15:32N 58°60' W 002°58'0 0.0
2017-Mar-13 14:32N 58°60' W 002°58'0 0.0
2017-Mar-13 13:32N 58°60' W 002°58'0 0.0
2017-Mar-13 12:32N 58°60' W 002°58'0 0.0
2017-Mar-13 11:32N 58°60' W 002°58'0 0.0
2017-Mar-13 10:32N 58°60' W 002°58'0 0.0
2017-Mar-13 09:32N 58°60' W 002°58'0 0.0
2017-Mar-13 08:32N 58°60' W 002°58'0 0.0
2017-Mar-13 07:32N 58°60' W 002°58'0 0.0
2017-Mar-13 06:32N 58°60' W 002°58'0 0.0
2017-Mar-13 05:32N 58°60' W 002°58'0 0.0
2017-Mar-13 04:32N 58°60' W 002°58'0 0.0
2017-Mar-13 03:32N 58°60' W 002°58'0 0.0
2017-Mar-13 02:32N 58°60' W 002°58'0 0.0
2017-Mar-13 01:32N 58°60' W 002°58'0 0.0
2017-Mar-13 00:32N 58°60' W 002°58'2 2.1
2017-Mar-12 23:33N 59°01' W 002°56'1110.6
2017-Mar-12 22:29N 58°56' W 002°37'  

Dump ship's entire track history